Picayune, MS

14:27 CDT le 25 mai 2015 (GMT -0500)
Hide_A_Way Lake ~OWX | | Change Station
CLOSE
Current Station
Stations météorologiques personnelles
Location: Carriere, MS
Altitude: 100 ft
Stations météo à proximité

Alt. 100 ft 30.58 °N, 89.65 °W | Updated 14 seconds ago

Orage
Orage
72.9 ° F
Paraît 71 ° F
N
0.0
Vent Variable Vent de SE
Gusts 7.0 mph

Aujourd'hui
Haut(e) -- | Bas -- ° F
--% Risque de précip.
Hier
Haut(e) -- | Bas -- ° F
Precip. -- pouce
5:59 AM 7:52 PM
Lune montante, 51% visible
Pression 30.07 pouce
Visibilité 10.0 Miles terrestres
Nuages Nuages épars 9000 ft
Nuageux 11000 ft
indice de chaleur 71 ° F
Point de rosée 70 ° F
Humidité 90%
Précipitations 0.17 pouce
Profondeur de la couche neigeuse Non disponible.
UV 0.6 sur 12
Pollen 2.90 sur 12
Qualité de l'air Non disponible.
Flu Activity No Activity
SPECI KASD 251917Z AUTO 15005KT 10SM TS SCT090 BKN110 24/22 A3007 RMK AO2 LTG DSNT ALQDS TSE1856B11 T02440222

More Conditions Fewer Conditions

Pression 30.07 pouce
Visibilité 10.0 Miles terrestres
Nuages Nuages épars 9000 ft
Nuageux 11000 ft
indice de chaleur 71 ° F
Point de rosée 70 ° F
Humidité 90%
Précipitations 0.17 pouce
Profondeur de la couche neigeuse Non disponible.
UV 0.6 sur 12
Pollen 2.90 sur 12
Qualité de l'air Non disponible.
Flu Activity No Activity
SPECI KASD 251917Z AUTO 15005KT 10SM TS SCT090 BKN110 24/22 A3007 RMK AO2 LTG DSNT ALQDS TSE1856B11 T02440222

More Conditions Fewer Conditions

10-Day Weather Forecast

Almanac

Astronomie

May. 25, 2015 Lever Coucher
Temps réel
Crépuscule civil
Crépuscule nautique
Crépuscule astronomique
Lune
Durée de lumière visible
Longueur du jour
Tomorrow will be .
, % of the Moon is Illuminated

Extrêmes aujourd'hui

State Highs State Lows

Community

WunderPhotos

Upload Photos

1,824,093 Photos téléchargées !

WunderBlogs® & News

Nearby

Qualité de l'air

  Qualité de l'air Indice de la qualité de l'air Polluant
Not available.

Épaisseur de neige

Station Depth Altitude

Activité sismique

Ville Distance Mag. Time & Date
Minimum magnitude displayed is 2.5.

Températures des eaux côtières

Lieu Température

Stations

Stations météo à proximité

Emplacement de la station Température Refroidissement éolien Point de rosée Humidité Vent Precip. Alt. Mise à jour Type